sensor_id;sensor_type;location;lat;lon;timestamp;pressure;altitude;pressure_sealevel;temperature;humidity
1616;BME280;801;47.982;7.810;2022-08-24T02:31:04;98680.81;;;20.05;100.00
1616;BME280;801;47.982;7.810;2022-08-24T02:33:32;98695.88;;;20.11;100.00
1616;BME280;801;47.982;7.810;2022-08-24T02:35:59;98692.19;;;20.07;100.00
1616;BME280;801;47.982;7.810;2022-08-24T02:38:26;98688.81;;;20.10;100.00
1616;BME280;801;47.982;7.810;2022-08-24T02:40:52;98687.53;;;20.08;100.00
1616;BME280;801;47.982;7.810;2022-08-24T02:43:20;98688.66;;;20.07;100.00
1616;BME280;801;47.982;7.810;2022-08-24T02:45:46;98698.75;;;20.06;100.00
1616;BME280;801;47.982;7.810;2022-08-24T02:48:14;98688.16;;;20.14;100.00
1616;BME280;801;47.982;7.810;2022-08-24T02:50:44;98685.44;;;20.14;100.00
1616;BME280;801;47.982;7.810;2022-08-24T02:53:12;98685.75;;;19.77;100.00
1616;BME280;801;47.982;7.810;2022-08-24T02:55:40;98688.66;;;19.89;100.00
1616;BME280;801;47.982;7.810;2022-08-24T02:58:08;98682.53;;;19.84;100.00
1616;BME280;801;47.982;7.810;2022-08-24T03:00:35;98685.59;;;19.82;100.00
1616;BME280;801;47.982;7.810;2022-08-24T03:03:04;98684.97;;;19.85;100.00
1616;BME280;801;47.982;7.810;2022-08-24T03:05:32;98686.22;;;19.79;100.00
1616;BME280;801;47.982;7.810;2022-08-24T03:07:59;98684.00;;;19.90;100.00
1616;BME280;801;47.982;7.810;2022-08-24T03:10:26;98687.50;;;19.73;100.00
1616;BME280;801;47.982;7.810;2022-08-24T03:12:53;98687.97;;;19.75;100.00
1616;BME280;801;47.982;7.810;2022-08-24T03:15:20;98684.94;;;19.77;100.00
1616;BME280;801;47.982;7.810;2022-08-24T03:17:47;98688.66;;;19.89;100.00
1616;BME280;801;47.982;7.810;2022-08-24T03:20:17;98688.47;;;19.86;100.00
1616;BME280;801;47.982;7.810;2022-08-24T03:22:45;98687.69;;;19.77;100.00
1616;BME280;801;47.982;7.810;2022-08-24T03:25:13;98681.44;;;19.76;100.00
1616;BME280;801;47.982;7.810;2022-08-24T03:27:40;98681.06;;;19.69;100.00
1616;BME280;801;47.982;7.810;2022-08-24T03:30:11;98679.13;;;19.61;100.00
1616;BME280;801;47.982;7.810;2022-08-24T03:32:38;98684.63;;;19.69;100.00
1616;BME280;801;47.982;7.810;2022-08-24T03:35:06;98680.09;;;19.65;100.00
1616;BME280;801;47.982;7.810;2022-08-24T03:37:33;98677.69;;;19.63;100.00
1616;BME280;801;47.982;7.810;2022-08-24T03:40:01;98678.16;;;19.65;100.00
1616;BME280;801;47.982;7.810;2022-08-24T03:42:28;98672.88;;;19.69;100.00
1616;BME280;801;47.982;7.810;2022-08-24T03:44:54;98673.97;;;19.59;100.00
1616;BME280;801;47.982;7.810;2022-08-24T03:47:21;98665.97;;;19.54;100.00
1616;BME280;801;47.982;7.810;2022-08-24T03:49:47;98666.28;;;19.53;100.00
1616;BME280;801;47.982;7.810;2022-08-24T03:52:15;98671.53;;;19.49;100.00
1616;BME280;801;47.982;7.810;2022-08-24T03:54:41;98665.75;;;19.42;100.00
1616;BME280;801;47.982;7.810;2022-08-24T03:57:09;98671.84;;;19.39;100.00
1616;BME280;801;47.982;7.810;2022-08-24T03:59:36;98676.34;;;19.43;100.00
1616;BME280;801;47.982;7.810;2022-08-24T04:02:02;98680.66;;;19.36;100.00
1616;BME280;801;47.982;7.810;2022-08-24T04:04:29;98673.44;;;19.40;100.00
1616;BME280;801;47.982;7.810;2022-08-24T04:06:56;98677.78;;;19.41;100.00
1616;BME280;801;47.982;7.810;2022-08-24T04:09:23;98681.00;;;19.43;100.00
1616;BME280;801;47.982;7.810;2022-08-24T04:11:50;98681.31;;;19.41;100.00
1616;BME280;801;47.982;7.810;2022-08-24T04:14:18;98671.84;;;19.39;100.00
1616;BME280;801;47.982;7.810;2022-08-24T04:16:44;98675.22;;;19.36;100.00
1616;BME280;801;47.982;7.810;2022-08-24T04:19:12;98680.19;;;19.34;100.00
1616;BME280;801;47.982;7.810;2022-08-24T04:21:39;98687.03;;;19.31;100.00
1616;BME280;801;47.982;7.810;2022-08-24T04:24:07;98679.03;;;19.35;100.00
1616;BME280;801;47.982;7.810;2022-08-24T04:26:36;98686.25;;;19.31;100.00
1616;BME280;801;47.982;7.810;2022-08-24T04:29:03;98687.19;;;19.26;100.00
1616;BME280;801;47.982;7.810;2022-08-24T04:31:33;98692.47;;;19.31;100.00
1616;BME280;801;47.982;7.810;2022-08-24T04:34:00;98689.16;;;19.34;100.00
1616;BME280;801;47.982;7.810;2022-08-24T04:36:26;98692.19;;;19.33;100.00
1616;BME280;801;47.982;7.810;2022-08-24T04:38:53;98698.59;;;18.97;100.00
1616;BME280;801;47.982;7.810;2022-08-24T04:41:20;98701.25;;;19.19;100.00
1616;BME280;801;47.982;7.810;2022-08-24T04:43:47;98701.97;;;18.94;100.00
1616;BME280;801;47.982;7.810;2022-08-24T04:46:16;98703.69;;;18.90;100.00
1616;BME280;801;47.982;7.810;2022-08-24T04:48:46;98700.44;;;19.10;100.00
1616;BME280;801;47.982;7.810;2022-08-24T04:51:15;98706.13;;;19.00;100.00
1616;BME280;801;47.982;7.810;2022-08-24T04:53:43;98711.03;;;19.12;100.00
1616;BME280;801;47.982;7.810;2022-08-24T04:56:13;98707.50;;;19.11;100.00
1616;BME280;801;47.982;7.810;2022-08-24T04:58:40;98704.63;;;19.16;100.00
1616;BME280;801;47.982;7.810;2022-08-24T05:01:08;98714.22;;;19.14;100.00
1616;BME280;801;47.982;7.810;2022-08-24T05:03:34;98713.34;;;18.96;100.00
1616;BME280;801;47.982;7.810;2022-08-24T05:06:03;98714.28;;;18.91;100.00
1616;BME280;801;47.982;7.810;2022-08-24T05:08:29;98714.16;;;18.96;100.00
1616;BME280;801;47.982;7.810;2022-08-24T05:10:56;98718.47;;;18.97;100.00
1616;BME280;801;47.982;7.810;2022-08-24T05:13:23;98716.50;;;18.89;100.00
1616;BME280;801;47.982;7.810;2022-08-24T05:15:50;98722.91;;;18.93;100.00
1616;BME280;801;47.982;7.810;2022-08-24T05:18:17;98718.31;;;18.94;100.00
1616;BME280;801;47.982;7.810;2022-08-24T05:20:45;98720.88;;;18.99;100.00
1616;BME280;801;47.982;7.810;2022-08-24T05:23:13;98714.44;;;18.95;100.00
1616;BME280;801;47.982;7.810;2022-08-24T05:25:40;98714.44;;;18.95;100.00
1616;BME280;801;47.982;7.810;2022-08-24T05:28:07;98714.31;;;19.00;100.00
1616;BME280;801;47.982;7.810;2022-08-24T05:30:34;98720.25;;;19.02;100.00
1616;BME280;801;47.982;7.810;2022-08-24T05:33:01;98714.03;;;19.10;100.00
1616;BME280;801;47.982;7.810;2022-08-24T05:35:27;98707.16;;;19.13;100.00
1616;BME280;801;47.982;7.810;2022-08-24T05:37:54;98713.69;;;19.03;100.00
1616;BME280;801;47.982;7.810;2022-08-24T05:40:22;98722.53;;;19.08;100.00
1616;BME280;801;47.982;7.810;2022-08-24T05:42:49;98718.75;;;19.18;100.00
1616;BME280;801;47.982;7.810;2022-08-24T05:45:16;98713.81;;;19.29;100.00
1616;BME280;801;47.982;7.810;2022-08-24T05:47:42;98723.44;;;19.35;100.00
1616;BME280;801;47.982;7.810;2022-08-24T05:50:09;98723.97;;;19.46;100.00
1616;BME280;801;47.982;7.810;2022-08-24T05:52:36;98715.81;;;19.55;100.00
1616;BME280;801;47.982;7.810;2022-08-24T05:55:03;98726.75;;;19.63;100.00
1616;BME280;801;47.982;7.810;2022-08-24T05:57:34;98727.09;;;19.70;100.00
1616;BME280;801;47.982;7.810;2022-08-24T06:00:01;98720.84;;;19.70;100.00
1616;BME280;801;47.982;7.810;2022-08-24T06:02:28;98720.22;;;19.73;100.00
1616;BME280;801;47.982;7.810;2022-08-24T06:04:54;98717.34;;;19.87;100.00
1616;BME280;801;47.982;7.810;2022-08-24T06:07:21;98727.16;;;19.97;100.00
1616;BME280;801;47.982;7.810;2022-08-24T06:09:47;98719.28;;;19.95;100.00
1616;BME280;801;47.982;7.810;2022-08-24T06:12:14;98726.03;;;20.06;100.00
1616;BME280;801;47.982;7.810;2022-08-24T06:14:45;98724.78;;;20.13;100.00
1616;BME280;801;47.982;7.810;2022-08-24T06:17:12;98720.91;;;20.14;100.00
1616;BME280;801;47.982;7.810;2022-08-24T06:19:39;98714.66;;;20.13;100.00
1616;BME280;801;47.982;7.810;2022-08-24T06:22:06;98719.63;;;20.20;100.00
1616;BME280;801;47.982;7.810;2022-08-24T06:24:35;98720.59;;;20.32;100.00
1616;BME280;801;47.982;7.810;2022-08-24T06:27:19;98723.94;;;20.38;100.00
1616;BME280;801;47.982;7.810;2022-08-24T06:29:53;98721.56;;;20.54;100.00
1616;BME280;801;47.982;7.810;2022-08-24T06:32:20;98726.88;;;20.68;98.62
1616;BME280;801;47.982;7.810;2022-08-24T06:34:47;98730.56;;;20.63;99.58
1616;BME280;801;47.982;7.810;2022-08-24T06:37:13;98731.94;;;20.87;100.00
1616;BME280;801;47.982;7.810;2022-08-24T06:39:40;98730.19;;;20.82;100.00
1616;BME280;801;47.982;7.810;2022-08-24T06:42:07;98733.41;;;20.84;100.00
1616;BME280;801;47.982;7.810;2022-08-24T06:44:36;98732.75;;;20.87;99.54
1616;BME280;801;47.982;7.810;2022-08-24T06:47:04;98735.09;;;21.15;97.47
1616;BME280;801;47.982;7.810;2022-08-24T06:49:31;98736.22;;;21.14;97.56
1616;BME280;801;47.982;7.810;2022-08-24T06:51:57;98739.09;;;21.18;96.35
1616;BME280;801;47.982;7.810;2022-08-24T06:54:24;98741.44;;;21.36;93.06
1616;BME280;801;47.982;7.810;2022-08-24T06:56:50;98741.09;;;21.38;95.56
1616;BME280;801;47.982;7.810;2022-08-24T06:59:17;98743.75;;;21.26;96.62
1616;BME280;801;47.982;7.810;2022-08-24T07:01:44;98745.84;;;21.20;96.89
1616;BME280;801;47.982;7.810;2022-08-24T07:04:12;98753.72;;;21.22;98.75
1616;BME280;801;47.982;7.810;2022-08-24T07:06:39;98756.03;;;21.49;97.13
1616;BME280;801;47.982;7.810;2022-08-24T07:09:05;98749.56;;;21.63;95.55
1616;BME280;801;47.982;7.810;2022-08-24T07:11:32;98762.97;;;21.47;92.62
1616;BME280;801;47.982;7.810;2022-08-24T07:13:59;98754.38;;;21.66;92.27
1616;BME280;801;47.982;7.810;2022-08-24T07:16:26;98755.16;;;21.96;89.58
1616;BME280;801;47.982;7.810;2022-08-24T07:18:52;98759.66;;;21.71;90.64
1616;BME280;801;47.982;7.810;2022-08-24T07:21:20;98755.41;;;21.82;91.52
1616;BME280;801;47.982;7.810;2022-08-24T07:23:47;98761.94;;;21.90;91.31
1616;BME280;801;47.982;7.810;2022-08-24T07:26:17;98759.78;;;22.04;88.55
1616;BME280;801;47.982;7.810;2022-08-24T07:28:44;98763.09;;;21.89;90.18
1616;BME280;801;47.982;7.810;2022-08-24T07:31:11;98766.94;;;21.88;90.47
1616;BME280;801;47.982;7.810;2022-08-24T07:33:38;98765.56;;;22.03;89.85
1616;BME280;801;47.982;7.810;2022-08-24T07:36:05;98763.03;;;22.18;87.58
1616;BME280;801;47.982;7.810;2022-08-24T07:38:33;98771.44;;;22.22;85.01
1616;BME280;801;47.982;7.810;2022-08-24T07:40:59;98768.44;;;22.36;86.87
1616;BME280;801;47.982;7.810;2022-08-24T07:43:26;98770.84;;;22.37;87.08
1616;BME280;801;47.982;7.810;2022-08-24T07:45:53;98765.44;;;22.29;87.62
1616;BME280;801;47.982;7.810;2022-08-24T07:48:19;98764.53;;;22.37;86.82
1616;BME280;801;47.982;7.810;2022-08-24T07:50:46;98765.59;;;22.66;86.79
1616;BME280;801;47.982;7.810;2022-08-24T07:53:13;98761.66;;;22.54;87.78
1616;BME280;801;47.982;7.810;2022-08-24T07:55:40;98776.16;;;22.76;86.28
1616;BME280;801;47.982;7.810;2022-08-24T07:58:08;98767.22;;;22.67;87.50
1616;BME280;801;47.982;7.810;2022-08-24T08:00:34;98767.84;;;22.85;86.30
1616;BME280;801;47.982;7.810;2022-08-24T08:03:01;98761.97;;;22.74;86.56
1616;BME280;801;47.982;7.810;2022-08-24T08:05:29;98758.38;;;22.82;87.73
1616;BME280;801;47.982;7.810;2022-08-24T08:07:56;98757.69;;;22.85;89.52
1616;BME280;801;47.982;7.810;2022-08-24T08:10:23;98752.91;;;22.94;90.23
1616;BME280;801;47.982;7.810;2022-08-24T08:12:51;98760.28;;;23.03;87.21
1616;BME280;801;47.982;7.810;2022-08-24T08:15:18;98762.84;;;23.20;86.96
1616;BME280;801;47.982;7.810;2022-08-24T08:17:44;98759.72;;;23.21;85.25
1616;BME280;801;47.982;7.810;2022-08-24T08:20:12;98763.53;;;23.29;84.38
1616;BME280;801;47.982;7.810;2022-08-24T08:22:38;98755.75;;;23.31;82.70
1616;BME280;801;47.982;7.810;2022-08-24T08:25:19;98756.56;;;23.44;82.32
1616;BME280;801;47.982;7.810;2022-08-24T08:27:45;98755.53;;;23.36;80.99
1616;BME280;801;47.982;7.810;2022-08-24T08:30:14;98759.09;;;23.49;81.10
1616;BME280;801;47.982;7.810;2022-08-24T08:32:40;98761.75;;;23.82;76.84
1616;BME280;801;47.982;7.810;2022-08-24T08:35:07;98757.97;;;23.75;75.95
1616;BME280;801;47.982;7.810;2022-08-24T08:37:34;98759.22;;;23.65;79.36
1616;BME280;801;47.982;7.810;2022-08-24T08:40:02;98769.75;;;23.88;80.72
1616;BME280;801;47.982;7.810;2022-08-24T08:42:36;98756.00;;;23.75;83.63
1616;BME280;801;47.982;7.810;2022-08-24T08:45:19;98768.13;;;23.74;81.87
1616;BME280;801;47.982;7.810;2022-08-24T08:48:06;98766.66;;;23.77;79.89
1616;BME280;801;47.982;7.810;2022-08-24T08:50:50;98763.56;;;23.91;78.95
1616;BME280;801;47.982;7.810;2022-08-24T08:56:34;98767.75;;;24.25;79.04
1616;BME280;801;47.982;7.810;2022-08-24T08:59:11;98768.06;;;24.36;74.29
1616;BME280;801;47.982;7.810;2022-08-24T09:01:48;98766.66;;;24.42;71.39
1616;BME280;801;47.982;7.810;2022-08-24T09:04:43;98759.63;;;24.16;71.77
1616;BME280;801;47.982;7.810;2022-08-24T09:07:19;98757.88;;;24.36;73.53
1616;BME280;801;47.982;7.810;2022-08-24T09:10:02;98756.75;;;24.25;76.01
1616;BME280;801;47.982;7.810;2022-08-24T09:12:44;98764.50;;;24.48;75.08
1616;BME280;801;47.982;7.810;2022-08-24T09:15:42;98760.75;;;24.68;73.46
1616;BME280;801;47.982;7.810;2022-08-24T09:18:25;98749.66;;;24.64;73.00
1616;BME280;801;47.982;7.810;2022-08-24T09:21:11;98765.59;;;24.87;72.43
1616;BME280;801;47.982;7.810;2022-08-24T09:23:48;98760.78;;;24.84;74.50
1616;BME280;801;47.982;7.810;2022-08-24T09:26:24;98752.75;;;24.91;73.09
1616;BME280;801;47.982;7.810;2022-08-24T09:28:59;98752.94;;;24.98;73.68
1616;BME280;801;47.982;7.810;2022-08-24T09:31:48;98749.75;;;24.96;74.76
1616;BME280;801;47.982;7.810;2022-08-24T09:34:31;98754.38;;;25.08;76.24
1616;BME280;801;47.982;7.810;2022-08-24T09:37:05;98753.19;;;25.37;74.64
1616;BME280;801;47.982;7.810;2022-08-24T09:39:52;98751.38;;;25.45;75.27
1616;BME280;801;47.982;7.810;2022-08-24T09:45:37;98744.13;;;25.53;76.11
1616;BME280;801;47.982;7.810;2022-08-24T09:48:38;98741.22;;;25.81;75.96
1616;BME280;801;47.982;7.810;2022-08-24T09:51:41;98738.50;;;25.97;73.91
1616;BME280;801;47.982;7.810;2022-08-24T09:57:27;98729.53;;;26.19;73.79
1616;BME280;801;47.982;7.810;2022-08-24T10:00:05;98726.16;;;25.91;73.67
1616;BME280;801;47.982;7.810;2022-08-24T10:02:48;98722.56;;;26.25;71.20
1616;BME280;801;47.982;7.810;2022-08-24T10:05:25;98713.03;;;26.58;69.88
1616;BME280;801;47.982;7.810;2022-08-24T10:08:01;98706.75;;;26.81;72.04
1616;BME280;801;47.982;7.810;2022-08-24T10:10:37;98703.28;;;26.84;70.12
1616;BME280;801;47.982;7.810;2022-08-24T10:13:15;98698.63;;;27.34;68.59
1616;BME280;801;47.982;7.810;2022-08-24T10:15:50;98695.81;;;27.30;69.77
1616;BME280;801;47.982;7.810;2022-08-24T10:21:22;98700.84;;;27.25;64.30
1616;BME280;801;47.982;7.810;2022-08-24T10:24:04;98698.13;;;27.51;59.93
1616;BME280;801;47.982;7.810;2022-08-24T10:26:39;98690.97;;;27.73;57.65
1616;BME280;801;47.982;7.810;2022-08-24T10:29:17;98688.66;;;27.79;54.68
1616;BME280;801;47.982;7.810;2022-08-24T10:32:02;98679.25;;;28.10;58.30
1616;BME280;801;47.982;7.810;2022-08-24T10:34:46;98676.28;;;28.26;51.38
1616;BME280;801;47.982;7.810;2022-08-24T10:40:47;98670.56;;;28.46;50.75
1616;BME280;801;47.982;7.810;2022-08-24T10:43:42;98664.66;;;28.81;46.24
1616;BME280;801;47.982;7.810;2022-08-24T10:46:38;98668.50;;;29.10;41.75
1616;BME280;801;47.982;7.810;2022-08-24T10:49:50;98650.25;;;29.06;41.94
1616;BME280;801;47.982;7.810;2022-08-24T10:55:25;98658.69;;;29.72;36.60
1616;BME280;801;47.982;7.810;2022-08-24T10:58:05;98664.78;;;30.06;34.88
1616;BME280;801;47.982;7.810;2022-08-24T11:00:36;98668.00;;;30.23;33.21
1616;BME280;801;47.982;7.810;2022-08-24T11:03:09;98671.22;;;30.28;34.18
1616;BME280;801;47.982;7.810;2022-08-24T11:05:40;98666.09;;;30.30;34.30
1616;BME280;801;47.982;7.810;2022-08-24T11:08:11;98678.00;;;30.38;32.36
1616;BME280;801;47.982;7.810;2022-08-24T11:10:42;98670.88;;;30.44;32.69
1616;BME280;801;47.982;7.810;2022-08-24T11:13:20;98673.31;;;30.71;32.28
1616;BME280;801;47.982;7.810;2022-08-24T11:15:49;98670.13;;;30.65;32.94
1616;BME280;801;47.982;7.810;2022-08-24T11:18:17;98664.63;;;30.72;32.55
1616;BME280;801;47.982;7.810;2022-08-24T11:20:46;98665.06;;;30.89;31.00
1616;BME280;801;47.982;7.810;2022-08-24T11:23:16;98659.91;;;30.94;31.63
1616;BME280;801;47.982;7.810;2022-08-24T11:25:53;98659.53;;;30.99;31.13
1616;BME280;801;47.982;7.810;2022-08-24T11:28:28;98654.34;;;30.83;30.99
1616;BME280;801;47.982;7.810;2022-08-24T11:30:57;98649.19;;;31.07;31.33
1616;BME280;801;47.982;7.810;2022-08-24T11:33:28;98655.56;;;31.04;31.10
1616;BME280;801;47.982;7.810;2022-08-24T11:35:56;98652.75;;;31.18;30.34
1616;BME280;801;47.982;7.810;2022-08-24T11:38:26;98655.53;;;31.11;32.10
1616;BME280;801;47.982;7.810;2022-08-24T11:40:58;98650.38;;;30.99;30.53
1616;BME280;801;47.982;7.810;2022-08-24T11:43:41;98654.72;;;30.75;29.55
1616;BME280;801;47.982;7.810;2022-08-24T11:46:18;98642.84;;;31.24;31.05
1616;BME280;801;47.982;7.810;2022-08-24T11:48:59;98648.00;;;31.01;29.90
1616;BME280;801;47.982;7.810;2022-08-24T11:51:35;98652.78;;;31.22;29.87
1616;BME280;801;47.982;7.810;2022-08-24T11:54:11;98650.78;;;31.19;30.19
1616;BME280;801;47.982;7.810;2022-08-24T11:56:46;98652.41;;;31.41;29.88
1616;BME280;801;47.982;7.810;2022-08-24T11:59:23;98650.38;;;31.56;30.15
1616;BME280;801;47.982;7.810;2022-08-24T12:01:58;98648.78;;;31.66;28.82
1616;BME280;801;47.982;7.810;2022-08-24T12:04:42;98642.44;;;31.30;30.13
1616;BME280;801;47.982;7.810;2022-08-24T12:07:19;98644.03;;;31.38;31.12
1616;BME280;801;47.982;7.810;2022-08-24T12:10:04;98648.78;;;31.66;30.30
1616;BME280;801;47.982;7.810;2022-08-24T12:12:36;98651.91;;;31.72;30.55
1616;BME280;801;47.982;7.810;2022-08-24T12:15:12;98647.88;;;31.94;31.05
1616;BME280;801;47.982;7.810;2022-08-24T12:17:44;98647.88;;;32.01;29.25
1616;BME280;801;47.982;7.810;2022-08-24T12:20:21;98644.34;;;31.83;29.51
1616;BME280;801;47.982;7.810;2022-08-24T12:22:50;98645.03;;;32.16;30.94
1616;BME280;801;47.982;7.810;2022-08-24T12:25:18;98649.44;;;32.10;29.43
1616;BME280;801;47.982;7.810;2022-08-24T12:28:03;98638.78;;;31.97;29.50
1616;BME280;801;47.982;7.810;2022-08-24T12:30:32;98635.44;;;32.31;31.04
1616;BME280;801;47.982;7.810;2022-08-24T12:33:02;98638.56;;;32.40;29.85
1616;BME280;801;47.982;7.810;2022-08-24T12:35:34;98632.94;;;32.55;28.23
1616;BME280;801;47.982;7.810;2022-08-24T12:38:06;98639.34;;;32.41;26.34
1616;BME280;801;47.982;7.810;2022-08-24T12:40:38;98634.28;;;32.29;27.34
1616;BME280;801;47.982;7.810;2022-08-24T12:43:09;98630.66;;;32.32;28.40
1616;BME280;801;47.982;7.810;2022-08-24T12:45:38;98629.88;;;32.31;28.84
1616;BME280;801;47.982;7.810;2022-08-24T12:48:09;98624.53;;;32.62;26.71
1616;BME280;801;47.982;7.810;2022-08-24T12:50:40;98627.28;;;33.21;28.14
1616;BME280;801;47.982;7.810;2022-08-24T12:56:20;98626.44;;;33.24;25.74
1616;BME280;801;47.982;7.810;2022-08-24T12:58:56;98624.19;;;33.12;24.63
1616;BME280;801;47.982;7.810;2022-08-24T13:01:30;98620.47;;;33.26;26.01
1616;BME280;801;47.982;7.810;2022-08-24T13:04:06;98623.94;;;33.37;26.73
1616;BME280;801;47.982;7.810;2022-08-24T13:06:39;98624.72;;;33.38;25.92
1616;BME280;801;47.982;7.810;2022-08-24T13:09:13;98624.09;;;33.99;25.97
1616;BME280;801;47.982;7.810;2022-08-24T13:11:40;98624.91;;;34.30;24.51
1616;BME280;801;47.982;7.810;2022-08-24T13:14:17;98618.00;;;34.38;25.10
1616;BME280;801;47.982;7.810;2022-08-24T13:17:09;98619.97;;;34.07;25.28
1616;BME280;801;47.982;7.810;2022-08-24T13:19:40;98622.59;;;34.52;25.88
1616;BME280;801;47.982;7.810;2022-08-24T13:22:35;98618.34;;;34.71;24.57
1616;BME280;801;47.982;7.810;2022-08-24T13:25:42;98616.47;;;34.34;24.89
1616;BME280;801;47.982;7.810;2022-08-24T13:28:37;98621.66;;;34.62;24.33
1616;BME280;801;47.982;7.810;2022-08-24T13:31:13;98612.63;;;34.78;25.33
1616;BME280;801;47.982;7.810;2022-08-24T13:33:46;98607.19;;;34.71;23.14
1616;BME280;801;47.982;7.810;2022-08-24T13:36:40;98603.66;;;34.67;23.94
1616;BME280;801;47.982;7.810;2022-08-24T13:39:19;98603.34;;;34.85;23.69
1616;BME280;801;47.982;7.810;2022-08-24T13:41:58;98602.59;;;35.08;24.25
1616;BME280;801;47.982;7.810;2022-08-24T13:44:39;98599.34;;;34.62;23.68
1616;BME280;801;47.982;7.810;2022-08-24T13:47:17;98590.50;;;34.91;23.86
1616;BME280;801;47.982;7.810;2022-08-24T13:49:57;98592.63;;;35.07;22.85
1616;BME280;801;47.982;7.810;2022-08-24T13:52:40;98594.75;;;34.99;22.54
1616;BME280;801;47.982;7.810;2022-08-24T13:55:27;98581.56;;;34.76;23.60
1616;BME280;801;47.982;7.810;2022-08-24T13:58:07;98569.09;;;35.08;20.95
1616;BME280;801;47.982;7.810;2022-08-24T14:00:41;98583.69;;;34.92;22.30
1616;BME280;801;47.982;7.810;2022-08-24T14:03:21;98578.88;;;35.20;22.63
1616;BME280;801;47.982;7.810;2022-08-24T14:05:53;98584.00;;;34.74;22.76
1616;BME280;801;47.982;7.810;2022-08-24T14:08:34;98585.09;;;35.04;21.65
1616;BME280;801;47.982;7.810;2022-08-24T14:11:08;98577.47;;;35.51;22.40
1616;BME280;801;47.982;7.810;2022-08-24T14:13:47;98576.59;;;35.34;22.47
1616;BME280;801;47.982;7.810;2022-08-24T14:16:29;98579.78;;;35.13;21.67
1616;BME280;801;47.982;7.810;2022-08-24T14:19:23;98581.72;;;35.16;21.36
1616;BME280;801;47.982;7.810;2022-08-24T14:21:55;98580.22;;;35.31;21.51
1616;BME280;801;47.982;7.810;2022-08-24T14:24:33;98570.00;;;35.45;20.89
1616;BME280;801;47.982;7.810;2022-08-24T14:27:36;98570.59;;;35.96;20.18
1616;BME280;801;47.982;7.810;2022-08-24T14:30:41;98573.66;;;35.22;21.04
1616;BME280;801;47.982;7.810;2022-08-24T14:33:17;98565.19;;;35.02;20.49
1616;BME280;801;47.982;7.810;2022-08-24T14:35:57;98570.53;;;35.16;20.61
1616;BME280;801;47.982;7.810;2022-08-24T14:38:43;98573.72;;;35.58;20.28
1616;BME280;801;47.982;7.810;2022-08-24T14:41:22;98568.13;;;35.18;20.32
1616;BME280;801;47.982;7.810;2022-08-24T14:44:09;98560.47;;;35.22;20.19
1616;BME280;801;47.982;7.810;2022-08-24T14:46:49;98574.84;;;35.21;19.79
1616;BME280;801;47.982;7.810;2022-08-24T14:49:23;98565.72;;;35.40;19.94
1616;BME280;801;47.982;7.810;2022-08-24T14:52:09;98566.81;;;35.23;19.20
1616;BME280;801;47.982;7.810;2022-08-24T14:54:47;98570.53;;;34.92;19.79
1616;BME280;801;47.982;7.810;2022-08-24T14:57:28;98567.38;;;35.14;19.98
1616;BME280;801;47.982;7.810;2022-08-24T15:00:09;98565.03;;;34.65;19.91
1616;BME280;801;47.982;7.810;2022-08-24T15:03:08;98564.16;;;34.68;19.76
1616;BME280;801;47.982;7.810;2022-08-24T15:05:46;98566.41;;;34.77;18.60
1616;BME280;801;47.982;7.810;2022-08-24T15:08:29;98554.22;;;34.40;19.02
1616;BME280;801;47.982;7.810;2022-08-24T15:11:04;98560.16;;;34.69;19.23
1616;BME280;801;47.982;7.810;2022-08-24T15:13:37;98558.28;;;34.86;19.94
1616;BME280;801;47.982;7.810;2022-08-24T15:16:08;98553.44;;;34.90;19.65
1616;BME280;801;47.982;7.810;2022-08-24T15:18:40;98552.56;;;34.93;19.89
1616;BME280;801;47.982;7.810;2022-08-24T15:21:16;98552.69;;;34.86;18.81
1616;BME280;801;47.982;7.810;2022-08-24T15:23:56;98548.41;;;35.25;18.93
1616;BME280;801;47.982;7.810;2022-08-24T15:26:32;98551.53;;;35.07;18.90
1616;BME280;801;47.982;7.810;2022-08-24T15:29:09;98553.97;;;35.49;17.54
1616;BME280;801;47.982;7.810;2022-08-24T15:31:37;98539.97;;;34.85;17.79
1616;BME280;801;47.982;7.810;2022-08-24T15:34:04;98549.66;;;35.24;17.52
1616;BME280;801;47.982;7.810;2022-08-24T15:36:32;98543.00;;;34.95;18.83
1616;BME280;801;47.982;7.810;2022-08-24T15:39:00;98540.56;;;35.20;18.88
1616;BME280;801;47.982;7.810;2022-08-24T15:41:31;98526.03;;;35.05;19.47
1616;BME280;801;47.982;7.810;2022-08-24T15:44:04;98535.13;;;34.66;18.96
1616;BME280;801;47.982;7.810;2022-08-24T15:46:34;98532.66;;;34.91;19.43
1616;BME280;801;47.982;7.810;2022-08-24T15:49:05;98522.00;;;34.86;19.12
1616;BME280;801;47.982;7.810;2022-08-24T15:51:43;98537.03;;;34.45;19.34
1616;BME280;801;47.982;7.810;2022-08-24T15:54:16;98530.53;;;34.52;18.98
1616;BME280;801;47.982;7.810;2022-08-24T15:56:57;98534.03;;;34.56;19.66
1616;BME280;801;47.982;7.810;2022-08-24T15:59:27;98537.19;;;34.58;20.31
1616;BME280;801;47.982;7.810;2022-08-24T16:02:17;98532.50;;;34.51;19.70
1616;BME280;801;47.982;7.810;2022-08-24T16:04:59;98533.59;;;34.85;19.72
1616;BME280;801;47.982;7.810;2022-08-24T16:07:31;98523.47;;;34.71;19.80
1616;BME280;801;47.982;7.810;2022-08-24T16:10:07;98531.75;;;34.24;19.18
1616;BME280;801;47.982;7.810;2022-08-24T16:12:36;98536.91;;;34.76;19.64
1616;BME280;801;47.982;7.810;2022-08-24T16:15:11;98538.59;;;34.46;20.08
1616;BME280;801;47.982;7.810;2022-08-24T16:17:40;98539.97;;;34.35;18.86
1616;BME280;801;47.982;7.810;2022-08-24T16:20:16;98541.81;;;34.18;18.54
1616;BME280;801;47.982;7.810;2022-08-24T16:22:55;98539.50;;;34.13;19.61
1616;BME280;801;47.982;7.810;2022-08-24T16:25:24;98532.56;;;33.94;19.30
1616;BME280;801;47.982;7.810;2022-08-24T16:28:01;98539.00;;;34.18;19.48
1616;BME280;801;47.982;7.810;2022-08-24T16:30:41;98535.84;;;34.70;19.76
1616;BME280;801;47.982;7.810;2022-08-24T16:33:10;98529.81;;;34.71;19.39
1616;BME280;801;47.982;7.810;2022-08-24T16:35:59;98537.19;;;34.85;19.72
1616;BME280;801;47.982;7.810;2022-08-24T16:38:26;98537.44;;;34.44;19.49
1616;BME280;801;47.982;7.810;2022-08-24T16:40:56;98546.47;;;34.79;19.68
1616;BME280;801;47.982;7.810;2022-08-24T16:43:23;98539.28;;;34.78;20.42
1616;BME280;801;47.982;7.810;2022-08-24T16:45:52;98539.09;;;34.88;20.42
1616;BME280;801;47.982;7.810;2022-08-24T16:48:19;98538.28;;;34.41;20.77
1616;BME280;801;47.982;7.810;2022-08-24T16:50:46;98542.72;;;34.07;21.42
1616;BME280;801;47.982;7.810;2022-08-24T16:53:14;98546.94;;;33.92;21.60